This is the latest recevied weather packets stored in our database for station/object DH1NAI-6. If no packets are shown the sender has not sent any weather packets the latest 10 day(s).
| Time | Temp. | Humidity | Pressure | Rain* | Wind** | Luminosity | Snow |
|---|---|---|---|---|---|---|---|
| 1778079536 | 16.67° C | 69% | 1003.7 hPa | 0 mm | - | 57 W/m² | - |
| 1778078913 | 16.67° C | 68% | 1003.9 hPa | 0 mm | - | 46 W/m² | - |
| 1778078305 | 17.22° C | 67% | 1003.8 hPa | 0 mm | - | 52 W/m² | - |
| 1778077697 | 17.78° C | 64% | 1003.8 hPa | 0 mm | - | 63 W/m² | - |
| 1778077088 | 17.22° C | 65% | 1003.9 hPa | 0 mm | - | 181 W/m² | - |
| 1778076481 | 17.22° C | 69% | 1003.8 hPa | 0 mm | - | 59 W/m² | - |
| 1778075873 | 17.22° C | 67% | 1003.8 hPa | 0 mm | - | 63 W/m² | - |
| 1778075265 | 16.67° C | 67% | 1003.7 hPa | 0 mm | - | 151 W/m² | - |
| 1778074657 | 16.67° C | 69% | 1003.9 hPa | 0 mm | - | 104 W/m² | - |
| 1778074049 | 16.67° C | 71% | 1004.1 hPa | 0 mm | - | 82 W/m² | - |
| 1778073441 | 16.67° C | 72% | 1004.3 hPa | 0 mm | - | 75 W/m² | - |
| 1778072817 | 16.67° C | 73% | 1004 hPa | 0 mm | - | 96 W/m² | - |
| 1778072209 | 16.67° C | 72% | 1004.3 hPa | 0 mm | - | 81 W/m² | - |
| 1778071585 | 16.67° C | 70% | 1004.3 hPa | 0 mm | - | 82 W/m² | - |
| 1778070977 | 16.67° C | 71% | 1004.3 hPa | 0 mm | - | 91 W/m² | - |
| 1778070369 | 16.67° C | 71% | 1004.4 hPa | 0 mm | - | 163 W/m² | - |
| 1778069761 | 16.11° C | 76% | 1004.4 hPa | 0 mm | - | 67 W/m² | - |
| 1778069153 | 15.56° C | 76% | 1004.2 hPa | 0 mm | - | 52 W/m² | - |
| 1778068545 | 15.56° C | 76% | 1004.4 hPa | 0 mm | - | 109 W/m² | - |
| 1778067932 | 16.11° C | 74% | 1004.5 hPa | 0 mm | - | 108 W/m² | - |
| 1778067329 | 16.11° C | 76% | 1004.5 hPa | 0 mm | - | 232 W/m² | - |
| 1778066720 | 15° C | 79% | 1004.4 hPa | 0 mm | - | 165 W/m² | - |
| 1778066097 | 14.44° C | 83% | 1004.6 hPa | 0 mm | - | 112 W/m² | - |
| 1778065489 | 14.44° C | 84% | 1004.5 hPa | 0 mm | - | 61 W/m² | - |
| 1778064865 | 13.89° C | 85% | 1004.6 hPa | 0 mm | - | 59 W/m² | - |
* Rain latest hour (hover to see other rain measurements)
** Current wind speed in m/s (hover to see current wind gust speed)